sensor_id;sensor_type;location;lat;lon;timestamp;P1;durP1;ratioP1;P2;durP2;ratioP2
15142;SDS011;7672;50.834;6.286;2023-07-28T00:00:59;1.30;;;1.20;;
15142;SDS011;7672;50.834;6.286;2023-07-28T00:03:26;0.90;;;0.90;;
15142;SDS011;7672;50.834;6.286;2023-07-28T00:05:53;0.80;;;0.80;;
15142;SDS011;7672;50.834;6.286;2023-07-28T00:08:20;1.37;;;1.03;;
15142;SDS011;7672;50.834;6.286;2023-07-28T00:10:48;2.40;;;1.00;;
15142;SDS011;7672;50.834;6.286;2023-07-28T00:13:15;2.10;;;1.10;;
15142;SDS011;7672;50.834;6.286;2023-07-28T00:15:42;2.90;;;1.00;;
15142;SDS011;7672;50.834;6.286;2023-07-28T00:18:09;1.10;;;1.10;;
15142;SDS011;7672;50.834;6.286;2023-07-28T00:20:36;0.93;;;0.87;;
15142;SDS011;7672;50.834;6.286;2023-07-28T00:23:04;1.27;;;1.03;;
15142;SDS011;7672;50.834;6.286;2023-07-28T00:25:31;1.87;;;0.90;;
15142;SDS011;7672;50.834;6.286;2023-07-28T00:27:58;1.10;;;1.00;;
15142;SDS011;7672;50.834;6.286;2023-07-28T00:30:25;0.80;;;0.80;;
15142;SDS011;7672;50.834;6.286;2023-07-28T00:32:53;1.77;;;0.90;;
15142;SDS011;7672;50.834;6.286;2023-07-28T00:35:20;1.17;;;1.07;;
15142;SDS011;7672;50.834;6.286;2023-07-28T00:37:47;3.17;;;1.10;;
15142;SDS011;7672;50.834;6.286;2023-07-28T00:40:14;1.07;;;1.07;;
15142;SDS011;7672;50.834;6.286;2023-07-28T00:42:42;1.10;;;1.00;;
15142;SDS011;7672;50.834;6.286;2023-07-28T00:45:09;1.87;;;1.00;;
15142;SDS011;7672;50.834;6.286;2023-07-28T00:47:36;0.80;;;0.80;;
15142;SDS011;7672;50.834;6.286;2023-07-28T00:50:04;2.80;;;0.90;;
15142;SDS011;7672;50.834;6.286;2023-07-28T00:52:32;1.10;;;1.00;;
15142;SDS011;7672;50.834;6.286;2023-07-28T00:55:00;3.17;;;1.40;;
15142;SDS011;7672;50.834;6.286;2023-07-28T00:57:27;1.40;;;1.00;;
15142;SDS011;7672;50.834;6.286;2023-07-28T00:59:55;1.97;;;1.23;;
15142;SDS011;7672;50.834;6.286;2023-07-28T01:02:22;2.93;;;1.20;;
15142;SDS011;7672;50.834;6.286;2023-07-28T01:04:50;1.43;;;1.20;;
15142;SDS011;7672;50.834;6.286;2023-07-28T01:10:26;1.53;;;1.03;;
15142;SDS011;7672;50.834;6.286;2023-07-28T01:12:59;1.90;;;1.10;;
15142;SDS011;7672;50.834;6.286;2023-07-28T01:15:26;1.17;;;1.10;;
15142;SDS011;7672;50.834;6.286;2023-07-28T01:17:53;1.73;;;1.23;;
15142;SDS011;7672;50.834;6.286;2023-07-28T01:20:22;2.33;;;1.00;;
15142;SDS011;7672;50.834;6.286;2023-07-28T01:25:48;1.07;;;0.97;;
15142;SDS011;7672;50.834;6.286;2023-07-28T01:28:22;2.67;;;1.20;;
15142;SDS011;7672;50.834;6.286;2023-07-28T01:30:49;2.10;;;1.10;;
15142;SDS011;7672;50.834;6.286;2023-07-28T01:33:17;1.60;;;1.20;;
15142;SDS011;7672;50.834;6.286;2023-07-28T01:35:44;1.03;;;1.03;;
15142;SDS011;7672;50.834;6.286;2023-07-28T01:38:11;1.60;;;1.20;;
15142;SDS011;7672;50.834;6.286;2023-07-28T01:40:39;1.73;;;0.90;;
15142;SDS011;7672;50.834;6.286;2023-07-28T01:43:06;2.20;;;1.30;;
15142;SDS011;7672;50.834;6.286;2023-07-28T01:45:33;2.07;;;1.40;;
15142;SDS011;7672;50.834;6.286;2023-07-28T01:48:00;1.70;;;1.60;;
15142;SDS011;7672;50.834;6.286;2023-07-28T01:50:28;2.50;;;1.10;;
15142;SDS011;7672;50.834;6.286;2023-07-28T01:52:55;1.60;;;1.50;;
15142;SDS011;7672;50.834;6.286;2023-07-28T01:55:22;1.50;;;1.40;;
15142;SDS011;7672;50.834;6.286;2023-07-28T01:57:50;1.53;;;1.43;;
15142;SDS011;7672;50.834;6.286;2023-07-28T02:00:23;2.23;;;1.70;;
15142;SDS011;7672;50.834;6.286;2023-07-28T02:02:51;3.27;;;1.47;;
15142;SDS011;7672;50.834;6.286;2023-07-28T02:05:19;3.13;;;1.70;;
15142;SDS011;7672;50.834;6.286;2023-07-28T02:07:46;2.80;;;1.70;;
15142;SDS011;7672;50.834;6.286;2023-07-28T02:10:13;3.17;;;2.00;;
15142;SDS011;7672;50.834;6.286;2023-07-28T02:12:40;3.20;;;1.60;;
15142;SDS011;7672;50.834;6.286;2023-07-28T02:15:08;3.40;;;1.87;;
15142;SDS011;7672;50.834;6.286;2023-07-28T02:17:35;2.80;;;1.80;;
15142;SDS011;7672;50.834;6.286;2023-07-28T02:20:03;9.17;;;2.10;;
15142;SDS011;7672;50.834;6.286;2023-07-28T02:22:30;4.93;;;2.33;;
15142;SDS011;7672;50.834;6.286;2023-07-28T02:24:57;3.00;;;1.63;;
15142;SDS011;7672;50.834;6.286;2023-07-28T02:27:29;2.47;;;2.27;;
15142;SDS011;7672;50.834;6.286;2023-07-28T02:29:57;5.40;;;2.47;;
15142;SDS011;7672;50.834;6.286;2023-07-28T02:32:24;4.03;;;2.40;;
15142;SDS011;7672;50.834;6.286;2023-07-28T02:34:52;2.40;;;2.00;;
15142;SDS011;7672;50.834;6.286;2023-07-28T02:37:19;5.03;;;2.20;;
15142;SDS011;7672;50.834;6.286;2023-07-28T02:39:46;2.40;;;2.20;;
15142;SDS011;7672;50.834;6.286;2023-07-28T02:42:14;2.90;;;2.00;;
15142;SDS011;7672;50.834;6.286;2023-07-28T02:44:41;2.40;;;2.20;;
15142;SDS011;7672;50.834;6.286;2023-07-28T02:47:08;3.07;;;2.10;;
15142;SDS011;7672;50.834;6.286;2023-07-28T02:49:35;5.10;;;2.03;;
15142;SDS011;7672;50.834;6.286;2023-07-28T02:52:03;2.37;;;2.17;;
15142;SDS011;7672;50.834;6.286;2023-07-28T02:54:30;3.37;;;2.30;;
15142;SDS011;7672;50.834;6.286;2023-07-28T02:56:57;2.30;;;1.83;;
15142;SDS011;7672;50.834;6.286;2023-07-28T02:59:25;5.50;;;2.23;;
15142;SDS011;7672;50.834;6.286;2023-07-28T03:01:52;4.33;;;2.13;;
15142;SDS011;7672;50.834;6.286;2023-07-28T03:04:20;4.13;;;1.70;;
15142;SDS011;7672;50.834;6.286;2023-07-28T03:07:22;1.93;;;1.60;;
15142;SDS011;7672;50.834;6.286;2023-07-28T03:09:56;1.93;;;1.70;;
15142;SDS011;7672;50.834;6.286;2023-07-28T03:12:24;3.00;;;1.83;;
15142;SDS011;7672;50.834;6.286;2023-07-28T03:14:52;1.90;;;1.70;;
15142;SDS011;7672;50.834;6.286;2023-07-28T03:17:19;7.47;;;1.97;;
15142;SDS011;7672;50.834;6.286;2023-07-28T03:19:46;2.77;;;1.70;;
15142;SDS011;7672;50.834;6.286;2023-07-28T03:22:13;1.63;;;1.50;;
15142;SDS011;7672;50.834;6.286;2023-07-28T03:24:40;2.23;;;1.40;;
15142;SDS011;7672;50.834;6.286;2023-07-28T03:27:08;1.83;;;1.57;;
15142;SDS011;7672;50.834;6.286;2023-07-28T03:29:35;2.40;;;1.50;;
15142;SDS011;7672;50.834;6.286;2023-07-28T03:32:03;1.50;;;1.40;;
15142;SDS011;7672;50.834;6.286;2023-07-28T03:34:31;5.60;;;1.47;;
15142;SDS011;7672;50.834;6.286;2023-07-28T03:37:00;2.73;;;1.37;;
15142;SDS011;7672;50.834;6.286;2023-07-28T03:39:27;2.27;;;1.50;;
15142;SDS011;7672;50.834;6.286;2023-07-28T03:41:54;1.40;;;1.30;;
15142;SDS011;7672;50.834;6.286;2023-07-28T03:44:21;1.60;;;1.23;;
15142;SDS011;7672;50.834;6.286;2023-07-28T03:46:49;1.70;;;1.20;;
15142;SDS011;7672;50.834;6.286;2023-07-28T03:49:16;1.10;;;1.00;;
15142;SDS011;7672;50.834;6.286;2023-07-28T03:51:43;1.10;;;1.10;;
15142;SDS011;7672;50.834;6.286;2023-07-28T03:54:10;2.17;;;1.17;;
15142;SDS011;7672;50.834;6.286;2023-07-28T03:56:38;1.37;;;0.93;;
15142;SDS011;7672;50.834;6.286;2023-07-28T03:59:05;3.60;;;1.10;;
15142;SDS011;7672;50.834;6.286;2023-07-28T04:01:32;0.90;;;0.90;;
15142;SDS011;7672;50.834;6.286;2023-07-28T04:03:59;2.33;;;0.87;;
15142;SDS011;7672;50.834;6.286;2023-07-28T04:06:41;1.17;;;0.90;;
15142;SDS011;7672;50.834;6.286;2023-07-28T04:09:12;1.60;;;0.90;;
15142;SDS011;7672;50.834;6.286;2023-07-28T04:11:41;1.40;;;1.30;;
15142;SDS011;7672;50.834;6.286;2023-07-28T04:14:08;0.90;;;0.90;;
15142;SDS011;7672;50.834;6.286;2023-07-28T04:16:35;2.20;;;0.87;;
15142;SDS011;7672;50.834;6.286;2023-07-28T04:19:03;4.17;;;0.90;;
15142;SDS011;7672;50.834;6.286;2023-07-28T04:21:30;0.87;;;0.83;;
15142;SDS011;7672;50.834;6.286;2023-07-28T04:23:57;1.20;;;0.90;;
15142;SDS011;7672;50.834;6.286;2023-07-28T04:26:24;2.40;;;0.70;;
15142;SDS011;7672;50.834;6.286;2023-07-28T04:28:58;0.80;;;0.80;;
15142;SDS011;7672;50.834;6.286;2023-07-28T04:31:25;4.37;;;1.10;;
15142;SDS011;7672;50.834;6.286;2023-07-28T04:33:57;0.90;;;0.90;;
15142;SDS011;7672;50.834;6.286;2023-07-28T04:36:31;2.20;;;0.90;;
15142;SDS011;7672;50.834;6.286;2023-07-28T04:38:59;2.93;;;1.00;;
15142;SDS011;7672;50.834;6.286;2023-07-28T04:41:26;0.80;;;0.80;;
15142;SDS011;7672;50.834;6.286;2023-07-28T04:43:54;1.77;;;0.80;;
15142;SDS011;7672;50.834;6.286;2023-07-28T04:46:24;2.10;;;0.70;;
15142;SDS011;7672;50.834;6.286;2023-07-28T04:48:56;2.63;;;1.00;;
15142;SDS011;7672;50.834;6.286;2023-07-28T04:51:41;2.60;;;2.40;;
15142;SDS011;7672;50.834;6.286;2023-07-28T04:54:28;1.53;;;0.80;;
15142;SDS011;7672;50.834;6.286;2023-07-28T04:56:56;1.57;;;0.73;;
15142;SDS011;7672;50.834;6.286;2023-07-28T04:59:29;1.60;;;0.70;;
15142;SDS011;7672;50.834;6.286;2023-07-28T05:01:56;1.80;;;0.67;;
15142;SDS011;7672;50.834;6.286;2023-07-28T05:04:24;0.97;;;0.80;;
15142;SDS011;7672;50.834;6.286;2023-07-28T05:06:51;1.33;;;0.70;;
15142;SDS011;7672;50.834;6.286;2023-07-28T05:09:18;2.30;;;0.80;;
15142;SDS011;7672;50.834;6.286;2023-07-28T05:11:45;0.83;;;0.83;;
15142;SDS011;7672;50.834;6.286;2023-07-28T05:14:15;1.00;;;0.90;;
15142;SDS011;7672;50.834;6.286;2023-07-28T05:16:42;2.00;;;0.70;;
15142;SDS011;7672;50.834;6.286;2023-07-28T05:19:09;1.00;;;0.90;;
15142;SDS011;7672;50.834;6.286;2023-07-28T05:21:54;2.87;;;2.13;;
15142;SDS011;7672;50.834;6.286;2023-07-28T05:24:30;1.43;;;1.10;;
15142;SDS011;7672;50.834;6.286;2023-07-28T05:26:57;1.00;;;1.00;;
15142;SDS011;7672;50.834;6.286;2023-07-28T05:29:24;2.20;;;1.30;;
15142;SDS011;7672;50.834;6.286;2023-07-28T05:31:54;2.70;;;1.10;;
15142;SDS011;7672;50.834;6.286;2023-07-28T05:34:28;1.80;;;1.40;;
15142;SDS011;7672;50.834;6.286;2023-07-28T05:36:56;4.23;;;1.83;;
15142;SDS011;7672;50.834;6.286;2023-07-28T05:39:27;2.17;;;1.97;;
15142;SDS011;7672;50.834;6.286;2023-07-28T05:41:54;1.90;;;1.80;;
15142;SDS011;7672;50.834;6.286;2023-07-28T05:44:21;2.00;;;1.90;;
15142;SDS011;7672;50.834;6.286;2023-07-28T05:46:49;2.40;;;2.20;;
15142;SDS011;7672;50.834;6.286;2023-07-28T05:49:19;2.87;;;2.50;;
15142;SDS011;7672;50.834;6.286;2023-07-28T05:51:47;3.30;;;2.30;;
15142;SDS011;7672;50.834;6.286;2023-07-28T05:54:14;3.90;;;2.43;;
15142;SDS011;7672;50.834;6.286;2023-07-28T05:56:42;4.00;;;2.80;;
15142;SDS011;7672;50.834;6.286;2023-07-28T05:59:09;2.60;;;2.40;;
15142;SDS011;7672;50.834;6.286;2023-07-28T06:01:37;2.57;;;2.33;;
15142;SDS011;7672;50.834;6.286;2023-07-28T06:04:25;5.80;;;2.50;;
15142;SDS011;7672;50.834;6.286;2023-07-28T06:06:56;3.27;;;2.07;;
15142;SDS011;7672;50.834;6.286;2023-07-28T06:09:23;4.03;;;2.27;;
15142;SDS011;7672;50.834;6.286;2023-07-28T06:11:50;2.80;;;2.33;;
15142;SDS011;7672;50.834;6.286;2023-07-28T06:14:17;2.47;;;2.20;;
15142;SDS011;7672;50.834;6.286;2023-07-28T06:16:44;3.03;;;1.80;;
15142;SDS011;7672;50.834;6.286;2023-07-28T06:19:12;2.03;;;1.93;;
15142;SDS011;7672;50.834;6.286;2023-07-28T06:21:40;2.43;;;2.10;;
15142;SDS011;7672;50.834;6.286;2023-07-28T06:24:07;2.33;;;2.10;;
15142;SDS011;7672;50.834;6.286;2023-07-28T06:26:34;2.40;;;2.20;;
15142;SDS011;7672;50.834;6.286;2023-07-28T06:29:01;5.77;;;2.50;;
15142;SDS011;7672;50.834;6.286;2023-07-28T06:31:29;1.90;;;1.80;;
15142;SDS011;7672;50.834;6.286;2023-07-28T06:33:56;1.90;;;1.80;;
15142;SDS011;7672;50.834;6.286;2023-07-28T06:36:24;2.35;;;1.90;;
15142;SDS011;7672;50.834;6.286;2023-07-28T06:38:51;2.03;;;1.93;;
15142;SDS011;7672;50.834;6.286;2023-07-28T06:41:19;2.90;;;1.90;;
15142;SDS011;7672;50.834;6.286;2023-07-28T06:43:46;1.98;;;1.88;;
15142;SDS011;7672;50.834;6.286;2023-07-28T06:46:14;2.97;;;1.80;;
15142;SDS011;7672;50.834;6.286;2023-07-28T06:48:42;1.90;;;1.80;;
15142;SDS011;7672;50.834;6.286;2023-07-28T06:51:09;1.65;;;1.50;;
15142;SDS011;7672;50.834;6.286;2023-07-28T06:53:35;1.80;;;1.70;;
15142;SDS011;7672;50.834;6.286;2023-07-28T06:56:06;3.53;;;1.20;;
15142;SDS011;7672;50.834;6.286;2023-07-28T06:58:33;1.83;;;1.50;;
15142;SDS011;7672;50.834;6.286;2023-07-28T07:01:00;2.65;;;1.60;;
15142;SDS011;7672;50.834;6.286;2023-07-28T07:03:27;1.90;;;1.80;;
15142;SDS011;7672;50.834;6.286;2023-07-28T07:05:55;3.15;;;1.60;;
15142;SDS011;7672;50.834;6.286;2023-07-28T07:08:22;1.52;;;1.40;;
15142;SDS011;7672;50.834;6.286;2023-07-28T07:10:50;1.48;;;1.40;;
15142;SDS011;7672;50.834;6.286;2023-07-28T07:13:17;1.90;;;1.30;;
15142;SDS011;7672;50.834;6.286;2023-07-28T07:15:45;3.22;;;1.25;;
15142;SDS011;7672;50.834;6.286;2023-07-28T07:18:12;1.40;;;1.30;;
15142;SDS011;7672;50.834;6.286;2023-07-28T07:20:39;5.13;;;1.30;;
15142;SDS011;7672;50.834;6.286;2023-07-28T07:23:07;1.30;;;1.20;;
15142;SDS011;7672;50.834;6.286;2023-07-28T07:25:34;3.72;;;1.40;;
15142;SDS011;7672;50.834;6.286;2023-07-28T07:28:03;1.52;;;1.42;;
15142;SDS011;7672;50.834;6.286;2023-07-28T07:30:32;3.38;;;1.50;;
15142;SDS011;7672;50.834;6.286;2023-07-28T07:33:00;3.42;;;1.30;;
15142;SDS011;7672;50.834;6.286;2023-07-28T07:35:27;2.50;;;1.65;;
15142;SDS011;7672;50.834;6.286;2023-07-28T07:37:54;1.63;;;1.35;;
15142;SDS011;7672;50.834;6.286;2023-07-28T07:40:21;3.25;;;1.50;;
15142;SDS011;7672;50.834;6.286;2023-07-28T07:42:52;2.22;;;1.38;;
15142;SDS011;7672;50.834;6.286;2023-07-28T07:45:19;1.70;;;1.60;;
15142;SDS011;7672;50.834;6.286;2023-07-28T07:47:46;1.25;;;1.20;;
15142;SDS011;7672;50.834;6.286;2023-07-28T07:50:13;2.13;;;1.25;;
15142;SDS011;7672;50.834;6.286;2023-07-28T07:52:40;1.88;;;1.63;;
15142;SDS011;7672;50.834;6.286;2023-07-28T07:55:09;2.53;;;1.45;;
15142;SDS011;7672;50.834;6.286;2023-07-28T07:57:40;2.88;;;1.58;;
15142;SDS011;7672;50.834;6.286;2023-07-28T08:00:08;2.63;;;1.40;;
15142;SDS011;7672;50.834;6.286;2023-07-28T08:02:40;2.15;;;1.10;;
15142;SDS011;7672;50.834;6.286;2023-07-28T08:05:11;2.15;;;1.30;;
15142;SDS011;7672;50.834;6.286;2023-07-28T08:07:38;1.65;;;1.40;;
15142;SDS011;7672;50.834;6.286;2023-07-28T08:10:06;1.27;;;1.17;;
15142;SDS011;7672;50.834;6.286;2023-07-28T08:12:33;1.30;;;1.20;;
15142;SDS011;7672;50.834;6.286;2023-07-28T08:15:00;1.02;;;1.02;;
15142;SDS011;7672;50.834;6.286;2023-07-28T08:17:28;2.38;;;1.02;;
15142;SDS011;7672;50.834;6.286;2023-07-28T08:19:55;1.25;;;1.00;;
15142;SDS011;7672;50.834;6.286;2023-07-28T08:22:22;1.17;;;0.88;;
15142;SDS011;7672;50.834;6.286;2023-07-28T08:24:49;0.95;;;0.90;;
15142;SDS011;7672;50.834;6.286;2023-07-28T08:27:16;2.15;;;0.80;;
15142;SDS011;7672;50.834;6.286;2023-07-28T08:29:43;1.10;;;0.90;;
15142;SDS011;7672;50.834;6.286;2023-07-28T08:32:10;1.27;;;1.13;;
15142;SDS011;7672;50.834;6.286;2023-07-28T08:34:38;1.08;;;1.08;;
15142;SDS011;7672;50.834;6.286;2023-07-28T08:37:05;2.35;;;0.90;;
15142;SDS011;7672;50.834;6.286;2023-07-28T08:39:39;1.33;;;0.88;;
15142;SDS011;7672;50.834;6.286;2023-07-28T08:42:06;0.93;;;0.88;;
15142;SDS011;7672;50.834;6.286;2023-07-28T08:44:34;1.17;;;1.00;;
15142;SDS011;7672;50.834;6.286;2023-07-28T08:47:02;1.33;;;0.80;;
15142;SDS011;7672;50.834;6.286;2023-07-28T08:49:31;0.77;;;0.77;;
15142;SDS011;7672;50.834;6.286;2023-07-28T08:52:01;1.60;;;0.80;;
15142;SDS011;7672;50.834;6.286;2023-07-28T08:54:30;0.98;;;0.98;;
15142;SDS011;7672;50.834;6.286;2023-07-28T08:56:57;1.05;;;0.80;;
15142;SDS011;7672;50.834;6.286;2023-07-28T08:59:26;0.80;;;0.80;;
15142;SDS011;7672;50.834;6.286;2023-07-28T09:01:57;1.00;;;1.00;;
15142;SDS011;7672;50.834;6.286;2023-07-28T09:04:25;0.73;;;0.73;;
15142;SDS011;7672;50.834;6.286;2023-07-28T09:06:53;5.55;;;0.90;;
15142;SDS011;7672;50.834;6.286;2023-07-28T09:09:21;1.67;;;0.75;;
15142;SDS011;7672;50.834;6.286;2023-07-28T09:11:58;1.65;;;1.00;;
15142;SDS011;7672;50.834;6.286;2023-07-28T09:14:27;1.70;;;0.90;;
15142;SDS011;7672;50.834;6.286;2023-07-28T09:16:54;2.50;;;0.82;;
15142;SDS011;7672;50.834;6.286;2023-07-28T09:19:25;1.70;;;0.93;;
15142;SDS011;7672;50.834;6.286;2023-07-28T09:21:59;0.82;;;0.82;;
15142;SDS011;7672;50.834;6.286;2023-07-28T09:24:31;1.13;;;0.70;;
15142;SDS011;7672;50.834;6.286;2023-07-28T09:27:01;1.10;;;1.10;;
15142;SDS011;7672;50.834;6.286;2023-07-28T09:29:28;3.00;;;1.17;;
15142;SDS011;7672;50.834;6.286;2023-07-28T09:32:03;1.10;;;1.00;;
15142;SDS011;7672;50.834;6.286;2023-07-28T09:34:31;1.25;;;0.85;;
15142;SDS011;7672;50.834;6.286;2023-07-28T09:37:01;1.40;;;0.90;;
15142;SDS011;7672;50.834;6.286;2023-07-28T09:39:31;0.80;;;0.80;;
15142;SDS011;7672;50.834;6.286;2023-07-28T09:42:00;0.80;;;0.80;;
15142;SDS011;7672;50.834;6.286;2023-07-28T09:44:33;0.88;;;0.88;;
15142;SDS011;7672;50.834;6.286;2023-07-28T09:47:00;0.93;;;0.93;;
15142;SDS011;7672;50.834;6.286;2023-07-28T09:49:33;2.38;;;0.73;;
15142;SDS011;7672;50.834;6.286;2023-07-28T09:52:05;1.40;;;0.60;;
15142;SDS011;7672;50.834;6.286;2023-07-28T09:54:39;0.60;;;0.60;;
15142;SDS011;7672;50.834;6.286;2023-07-28T09:57:12;0.70;;;0.70;;
15142;SDS011;7672;50.834;6.286;2023-07-28T09:59:47;0.70;;;0.70;;
15142;SDS011;7672;50.834;6.286;2023-07-28T10:02:16;0.80;;;0.80;;
15142;SDS011;7672;50.834;6.286;2023-07-28T10:04:43;0.95;;;0.80;;
15142;SDS011;7672;50.834;6.286;2023-07-28T10:07:11;3.30;;;1.13;;
15142;SDS011;7672;50.834;6.286;2023-07-28T10:09:39;1.55;;;1.00;;
15142;SDS011;7672;50.834;6.286;2023-07-28T10:12:08;0.80;;;0.80;;
15142;SDS011;7672;50.834;6.286;2023-07-28T10:14:52;1.15;;;1.08;;
15142;SDS011;7672;50.834;6.286;2023-07-28T10:17:32;1.10;;;1.10;;
15142;SDS011;7672;50.834;6.286;2023-07-28T10:20:05;1.05;;;0.95;;
15142;SDS011;7672;50.834;6.286;2023-07-28T10:22:44;1.05;;;0.98;;
15142;SDS011;7672;50.834;6.286;2023-07-28T10:25:11;2.90;;;1.02;;
15142;SDS011;7672;50.834;6.286;2023-07-28T10:27:50;1.20;;;1.10;;
15142;SDS011;7672;50.834;6.286;2023-07-28T10:30:17;1.23;;;1.13;;
15142;SDS011;7672;50.834;6.286;2023-07-28T10:32:48;1.00;;;1.00;;
15142;SDS011;7672;50.834;6.286;2023-07-28T10:37:52;1.25;;;1.00;;
15142;SDS011;7672;50.834;6.286;2023-07-28T10:40:32;3.63;;;0.75;;
15142;SDS011;7672;50.834;6.286;2023-07-28T10:43:02;1.00;;;0.90;;
15142;SDS011;7672;50.834;6.286;2023-07-28T10:45:31;1.02;;;1.00;;
15142;SDS011;7672;50.834;6.286;2023-07-28T10:47:59;0.90;;;0.90;;
15142;SDS011;7672;50.834;6.286;2023-07-28T10:50:28;1.00;;;1.00;;
15142;SDS011;7672;50.834;6.286;2023-07-28T10:53:01;4.05;;;1.23;;
15142;SDS011;7672;50.834;6.286;2023-07-28T10:55:28;1.65;;;1.10;;
15142;SDS011;7672;50.834;6.286;2023-07-28T10:57:56;1.10;;;1.10;;
15142;SDS011;7672;50.834;6.286;2023-07-28T11:00:25;1.10;;;1.10;;
15142;SDS011;7672;50.834;6.286;2023-07-28T11:02:52;0.90;;;0.90;;
15142;SDS011;7672;50.834;6.286;2023-07-28T11:05:22;1.58;;;1.00;;
15142;SDS011;7672;50.834;6.286;2023-07-28T11:07:51;0.75;;;0.75;;
15142;SDS011;7672;50.834;6.286;2023-07-28T11:10:28;0.90;;;0.90;;
15142;SDS011;7672;50.834;6.286;2023-07-28T11:12:57;1.95;;;1.00;;
15142;SDS011;7672;50.834;6.286;2023-07-28T11:15:41;1.23;;;0.85;;
15142;SDS011;7672;50.834;6.286;2023-07-28T11:18:08;1.40;;;0.85;;
15142;SDS011;7672;50.834;6.286;2023-07-28T11:20:36;0.82;;;0.82;;
15142;SDS011;7672;50.834;6.286;2023-07-28T11:23:04;1.60;;;1.00;;
15142;SDS011;7672;50.834;6.286;2023-07-28T11:25:32;1.05;;;1.05;;
15142;SDS011;7672;50.834;6.286;2023-07-28T11:28:01;4.95;;;1.05;;
15142;SDS011;7672;50.834;6.286;2023-07-28T11:30:32;3.30;;;1.00;;
15142;SDS011;7672;50.834;6.286;2023-07-28T11:33:08;1.10;;;1.10;;
15142;SDS011;7672;50.834;6.286;2023-07-28T11:35:39;1.20;;;1.10;;
15142;SDS011;7672;50.834;6.286;2023-07-28T11:38:07;1.10;;;1.00;;
15142;SDS011;7672;50.834;6.286;2023-07-28T11:40:35;1.27;;;1.20;;
15142;SDS011;7672;50.834;6.286;2023-07-28T11:43:04;1.10;;;1.10;;
15142;SDS011;7672;50.834;6.286;2023-07-28T11:45:31;2.15;;;0.80;;
15142;SDS011;7672;50.834;6.286;2023-07-28T11:47:59;1.00;;;0.88;;
15142;SDS011;7672;50.834;6.286;2023-07-28T11:50:39;0.75;;;0.75;;
15142;SDS011;7672;50.834;6.286;2023-07-28T11:53:08;1.08;;;0.90;;
15142;SDS011;7672;50.834;6.286;2023-07-28T11:55:36;1.00;;;0.90;;
15142;SDS011;7672;50.834;6.286;2023-07-28T11:58:05;1.02;;;0.93;;
15142;SDS011;7672;50.834;6.286;2023-07-28T12:00:37;1.55;;;1.13;;
15142;SDS011;7672;50.834;6.286;2023-07-28T12:03:10;3.45;;;1.02;;
15142;SDS011;7672;50.834;6.286;2023-07-28T12:05:41;0.90;;;0.90;;
15142;SDS011;7672;50.834;6.286;2023-07-28T12:08:34;2.58;;;1.00;;
15142;SDS011;7672;50.834;6.286;2023-07-28T12:11:03;0.90;;;0.90;;
15142;SDS011;7672;50.834;6.286;2023-07-28T12:13:46;1.42;;;1.00;;
15142;SDS011;7672;50.834;6.286;2023-07-28T12:16:39;0.90;;;0.90;;
15142;SDS011;7672;50.834;6.286;2023-07-28T12:19:11;0.90;;;0.90;;
15142;SDS011;7672;50.834;6.286;2023-07-28T12:21:38;0.80;;;0.80;;
15142;SDS011;7672;50.834;6.286;2023-07-28T12:24:05;2.20;;;1.17;;
15142;SDS011;7672;50.834;6.286;2023-07-28T12:26:33;1.05;;;0.80;;
15142;SDS011;7672;50.834;6.286;2023-07-28T12:29:05;0.77;;;0.77;;
15142;SDS011;7672;50.834;6.286;2023-07-28T12:31:35;0.93;;;0.80;;
15142;SDS011;7672;50.834;6.286;2023-07-28T12:34:11;1.92;;;0.70;;
15142;SDS011;7672;50.834;6.286;2023-07-28T12:36:51;1.63;;;0.90;;
15142;SDS011;7672;50.834;6.286;2023-07-28T12:39:20;0.80;;;0.80;;
15142;SDS011;7672;50.834;6.286;2023-07-28T12:41:50;1.75;;;0.70;;
15142;SDS011;7672;50.834;6.286;2023-07-28T12:44:20;0.75;;;0.75;;
15142;SDS011;7672;50.834;6.286;2023-07-28T12:47:08;0.50;;;0.50;;
15142;SDS011;7672;50.834;6.286;2023-07-28T12:49:35;1.05;;;1.05;;
15142;SDS011;7672;50.834;6.286;2023-07-28T12:52:03;0.88;;;0.68;;
15142;SDS011;7672;50.834;6.286;2023-07-28T12:54:45;0.60;;;0.60;;
15142;SDS011;7672;50.834;6.286;2023-07-28T12:57:13;3.25;;;0.90;;
15142;SDS011;7672;50.834;6.286;2023-07-28T12:59:40;0.60;;;0.60;;
15142;SDS011;7672;50.834;6.286;2023-07-28T13:02:10;0.82;;;0.82;;
15142;SDS011;7672;50.834;6.286;2023-07-28T13:04:37;0.60;;;0.57;;
15142;SDS011;7672;50.834;6.286;2023-07-28T13:07:04;0.57;;;0.40;;
15142;SDS011;7672;50.834;6.286;2023-07-28T13:09:34;0.52;;;0.52;;
15142;SDS011;7672;50.834;6.286;2023-07-28T13:12:02;0.40;;;0.40;;
15142;SDS011;7672;50.834;6.286;2023-07-28T13:14:33;1.48;;;0.70;;
15142;SDS011;7672;50.834;6.286;2023-07-28T13:17:00;0.73;;;0.50;;
15142;SDS011;7672;50.834;6.286;2023-07-28T13:19:27;0.73;;;0.40;;
15142;SDS011;7672;50.834;6.286;2023-07-28T13:21:55;0.68;;;0.50;;
15142;SDS011;7672;50.834;6.286;2023-07-28T13:24:21;1.05;;;0.40;;
15142;SDS011;7672;50.834;6.286;2023-07-28T13:26:49;0.40;;;0.40;;
15142;SDS011;7672;50.834;6.286;2023-07-28T13:29:16;0.90;;;0.47;;
15142;SDS011;7672;50.834;6.286;2023-07-28T13:31:43;0.50;;;0.50;;
15142;SDS011;7672;50.834;6.286;2023-07-28T13:34:10;0.50;;;0.50;;
15142;SDS011;7672;50.834;6.286;2023-07-28T13:36:37;2.83;;;0.70;;
15142;SDS011;7672;50.834;6.286;2023-07-28T13:39:04;0.75;;;0.60;;
15142;SDS011;7672;50.834;6.286;2023-07-28T13:41:32;1.92;;;0.60;;
15142;SDS011;7672;50.834;6.286;2023-07-28T13:44:00;0.50;;;0.50;;
15142;SDS011;7672;50.834;6.286;2023-07-28T13:46:28;1.02;;;0.60;;
15142;SDS011;7672;50.834;6.286;2023-07-28T13:48:55;0.60;;;0.60;;
15142;SDS011;7672;50.834;6.286;2023-07-28T13:51:33;0.60;;;0.60;;
15142;SDS011;7672;50.834;6.286;2023-07-28T13:54:20;0.73;;;0.52;;
15142;SDS011;7672;50.834;6.286;2023-07-28T13:56:49;0.40;;;0.40;;
15142;SDS011;7672;50.834;6.286;2023-07-28T13:59:20;1.20;;;0.50;;
15142;SDS011;7672;50.834;6.286;2023-07-28T14:01:48;0.50;;;0.45;;
15142;SDS011;7672;50.834;6.286;2023-07-28T14:04:16;0.50;;;0.50;;
15142;SDS011;7672;50.834;6.286;2023-07-28T14:06:43;0.57;;;0.57;;
15142;SDS011;7672;50.834;6.286;2023-07-28T14:09:10;1.73;;;0.60;;
15142;SDS011;7672;50.834;6.286;2023-07-28T14:11:37;0.50;;;0.50;;
15142;SDS011;7672;50.834;6.286;2023-07-28T14:14:04;0.40;;;0.40;;
15142;SDS011;7672;50.834;6.286;2023-07-28T14:16:31;0.50;;;0.50;;
15142;SDS011;7672;50.834;6.286;2023-07-28T14:18:58;0.50;;;0.50;;
15142;SDS011;7672;50.834;6.286;2023-07-28T14:21:25;0.60;;;0.60;;
15142;SDS011;7672;50.834;6.286;2023-07-28T14:23:52;0.52;;;0.52;;
15142;SDS011;7672;50.834;6.286;2023-07-28T14:26:19;1.30;;;0.70;;
15142;SDS011;7672;50.834;6.286;2023-07-28T14:28:46;0.60;;;0.60;;
15142;SDS011;7672;50.834;6.286;2023-07-28T14:31:13;0.85;;;0.63;;
15142;SDS011;7672;50.834;6.286;2023-07-28T14:33:41;1.55;;;0.60;;
15142;SDS011;7672;50.834;6.286;2023-07-28T14:36:08;0.60;;;0.60;;
15142;SDS011;7672;50.834;6.286;2023-07-28T14:38:35;0.50;;;0.50;;
15142;SDS011;7672;50.834;6.286;2023-07-28T14:41:02;1.90;;;0.70;;
15142;SDS011;7672;50.834;6.286;2023-07-28T14:43:29;0.77;;;0.60;;
15142;SDS011;7672;50.834;6.286;2023-07-28T14:45:56;0.73;;;0.70;;
15142;SDS011;7672;50.834;6.286;2023-07-28T14:48:24;0.73;;;0.73;;
15142;SDS011;7672;50.834;6.286;2023-07-28T14:50:51;3.55;;;0.95;;
15142;SDS011;7672;50.834;6.286;2023-07-28T14:53:34;0.90;;;0.90;;
15142;SDS011;7672;50.834;6.286;2023-07-28T14:56:04;2.75;;;0.90;;
15142;SDS011;7672;50.834;6.286;2023-07-28T14:58:32;5.00;;;0.90;;
15142;SDS011;7672;50.834;6.286;2023-07-28T15:01:00;2.08;;;0.80;;
15142;SDS011;7672;50.834;6.286;2023-07-28T15:03:29;0.77;;;0.77;;
15142;SDS011;7672;50.834;6.286;2023-07-28T15:05:59;1.50;;;1.15;;
15142;SDS011;7672;50.834;6.286;2023-07-28T15:08:27;0.80;;;0.80;;
15142;SDS011;7672;50.834;6.286;2023-07-28T15:10:55;1.98;;;1.00;;
15142;SDS011;7672;50.834;6.286;2023-07-28T15:13:23;1.40;;;1.00;;
15142;SDS011;7672;50.834;6.286;2023-07-28T15:15:50;1.85;;;0.98;;
15142;SDS011;7672;50.834;6.286;2023-07-28T15:18:18;1.58;;;1.05;;
15142;SDS011;7672;50.834;6.286;2023-07-28T15:20:45;1.85;;;1.02;;